createdAt,value
2023-03-06T00:01:29.270Z,28.32
2023-03-06T00:05:29.213Z,28.23
2023-03-06T00:09:29.194Z,28.28
2023-03-06T00:13:29.171Z,28.20
2023-03-06T00:17:29.146Z,28.22
2023-03-06T00:21:29.088Z,28.24
2023-03-06T00:25:29.066Z,28.23
2023-03-06T00:29:28.998Z,28.22
2023-03-06T00:33:29.050Z,28.19
2023-03-06T00:37:29.190Z,28.19
2023-03-06T00:41:29.291Z,28.15
2023-03-06T00:45:29.590Z,28.14
2023-03-06T00:49:29.673Z,28.15
2023-03-06T00:53:29.803Z,28.12
2023-03-06T00:57:29.940Z,28.05
2023-03-06T01:01:30.098Z,28.07
2023-03-06T01:05:30.206Z,28.08
2023-03-06T01:09:30.294Z,28.07
2023-03-06T01:13:30.530Z,28.02
2023-03-06T01:17:30.537Z,28.04
2023-03-06T01:21:30.682Z,27.96
2023-03-06T01:25:30.715Z,28.01
2023-03-06T01:29:30.793Z,28.01
2023-03-06T01:33:30.882Z,27.95
2023-03-06T01:37:30.895Z,27.97
2023-03-06T01:41:30.980Z,27.93
2023-03-06T01:45:30.989Z,27.91
2023-03-06T01:49:30.957Z,27.99
2023-03-06T01:53:30.965Z,27.96
2023-03-06T01:57:30.999Z,27.95
2023-03-06T02:01:30.986Z,27.93
2023-03-06T02:05:30.947Z,27.90
2023-03-06T02:09:30.967Z,27.82
2023-03-06T02:13:30.967Z,27.88
2023-03-06T02:17:31.067Z,27.88
2023-03-06T02:21:31.046Z,27.85
2023-03-06T02:25:31.021Z,27.84
2023-03-06T02:29:31.032Z,27.82
2023-03-06T02:33:31.013Z,27.78
2023-03-06T02:37:31.014Z,27.78
2023-03-06T02:41:31.035Z,27.72
2023-03-06T02:45:31.035Z,27.75
2023-03-06T02:49:31.004Z,27.72
2023-03-06T02:53:30.989Z,27.77
2023-03-06T02:57:31.018Z,27.74
2023-03-06T03:01:31.044Z,27.73
2023-03-06T03:05:31.022Z,27.69
2023-03-06T03:09:31.010Z,27.65
2023-03-06T03:13:31.033Z,27.70
2023-03-06T03:17:31.044Z,27.60
2023-03-06T03:21:31.103Z,27.66
2023-03-06T03:25:31.105Z,27.67
2023-03-06T03:29:31.098Z,27.65
2023-03-06T03:33:31.201Z,27.68
2023-03-06T03:37:31.206Z,27.68
2023-03-06T03:41:31.623Z,27.67
2023-03-06T03:45:31.199Z,27.66
2023-03-06T03:49:31.284Z,27.66
2023-03-06T03:53:31.280Z,27.62
2023-03-06T03:57:31.331Z,27.64
2023-03-06T04:01:31.563Z,27.64
2023-03-06T04:05:31.415Z,27.66
2023-03-06T04:09:31.450Z,27.65
2023-03-06T04:13:31.496Z,27.62
2023-03-06T04:17:31.546Z,27.64
2023-03-06T04:21:31.632Z,27.60
2023-03-06T04:25:31.675Z,27.54
2023-03-06T04:29:31.684Z,27.50
2023-03-06T04:33:31.701Z,27.50
2023-03-06T04:37:31.721Z,27.47
2023-03-06T04:41:31.747Z,27.57
2023-03-06T04:45:31.798Z,27.48
2023-03-06T04:49:31.825Z,27.45
2023-03-06T04:53:31.822Z,27.45
2023-03-06T04:57:31.909Z,27.53
2023-03-06T05:01:31.978Z,26.98
2023-03-06T05:05:32.142Z,26.97
2023-03-06T05:09:32.186Z,27.00
2023-03-06T05:13:32.266Z,26.97
2023-03-06T05:17:32.312Z,26.95
2023-03-06T05:21:32.366Z,26.97
2023-03-06T05:25:32.345Z,26.98
2023-03-06T05:29:32.425Z,27.04
2023-03-06T05:33:32.445Z,26.99
2023-03-06T05:37:32.495Z,27.04
2023-03-06T05:41:32.523Z,27.08
2023-03-06T05:45:32.568Z,27.03
2023-03-06T05:49:32.565Z,27.01
2023-03-06T05:53:32.641Z,27.75
2023-03-06T05:57:32.652Z,28.22
2023-03-06T06:01:32.661Z,29.46
2023-03-06T06:05:32.694Z,29.31
2023-03-06T06:09:32.747Z,29.87
2023-03-06T06:13:32.715Z,29.82
2023-03-06T06:17:32.753Z,31.02
2023-03-06T06:21:32.756Z,32.33
2023-03-06T06:25:32.762Z,35.89
2023-03-06T06:29:32.797Z,37.39
2023-03-06T06:33:32.768Z,36.58
2023-03-06T06:37:32.803Z,35.89
2023-03-06T06:41:51.090Z,36.65
2023-03-06T06:45:33.788Z,35.91
2023-03-06T06:49:33.197Z,35.82
2023-03-06T06:53:32.681Z,36.08
2023-03-06T06:57:32.687Z,32.82
2023-03-06T07:01:32.818Z,35.77
2023-03-06T07:05:32.810Z,38.41
2023-03-06T07:09:33.205Z,40.63
2023-03-06T07:13:33.191Z,41.09
2023-03-06T07:17:32.725Z,42.17
2023-03-06T07:21:32.711Z,42.28
2023-03-06T07:25:32.690Z,42.81
2023-03-06T07:29:32.717Z,43.62
2023-03-06T07:33:32.595Z,43.85
2023-03-06T07:37:32.731Z,44.56
2023-03-06T07:41:32.528Z,44.84
2023-03-06T07:45:32.717Z,44.22
2023-03-06T07:49:32.478Z,43.37
2023-03-06T07:53:32.704Z,43.27
2023-03-06T07:57:32.704Z,43.28
2023-03-06T08:01:32.374Z,43.42
2023-03-06T08:05:32.397Z,44.39
2023-03-06T08:09:32.384Z,44.34
2023-03-06T08:13:32.725Z,44.47
2023-03-06T08:17:32.359Z,44.60
2023-03-06T08:21:32.255Z,44.97
2023-03-06T08:25:32.224Z,45.34
2023-03-06T08:29:32.438Z,45.29
2023-03-06T08:33:32.141Z,45.80
2023-03-06T08:37:32.146Z,45.83
2023-03-06T08:41:32.243Z,46.03
2023-03-06T08:45:32.396Z,45.89
2023-03-06T08:49:32.255Z,44.02
2023-03-06T08:53:42.534Z,37.91
2023-03-06T08:57:32.939Z,38.61
2023-03-06T09:01:32.249Z,40.51
2023-03-06T09:05:31.861Z,41.60
2023-03-06T09:09:31.844Z,42.05
2023-03-06T09:13:31.908Z,42.75
2023-03-06T09:17:31.918Z,43.03
2023-03-06T09:21:31.857Z,43.20
2023-03-06T09:25:31.815Z,43.45
2023-03-06T09:29:31.813Z,43.85
2023-03-06T09:33:31.735Z,44.13
2023-03-06T09:37:31.762Z,43.87
2023-03-06T09:41:31.746Z,44.18
2023-03-06T09:45:31.642Z,44.91
2023-03-06T09:49:31.613Z,45.30
2023-03-06T09:53:31.756Z,45.43
2023-03-06T09:57:31.763Z,45.69
2023-03-06T10:01:31.514Z,45.95
2023-03-06T10:05:31.475Z,44.47
2023-03-06T10:09:31.456Z,44.65
2023-03-06T10:13:31.419Z,45.37
2023-03-06T10:17:31.777Z,45.89
2023-03-06T10:21:31.515Z,46.40
2023-03-06T10:25:32.267Z,46.71
2023-03-06T10:29:31.533Z,47.04
2023-03-06T10:33:31.761Z,47.35
2023-03-06T10:37:32.654Z,47.54
2023-03-06T10:41:32.295Z,48.22
2023-03-06T10:45:47.292Z,47.77
2023-03-06T10:49:33.307Z,47.96
2023-03-06T10:53:32.185Z,48.35
2023-03-06T10:57:32.134Z,48.41
2023-03-06T11:01:32.343Z,48.56
2023-03-06T11:05:32.056Z,48.77
2023-03-06T11:09:32.059Z,49.01
2023-03-06T11:13:31.986Z,48.79
2023-03-06T11:17:32.003Z,48.95
2023-03-06T11:21:32.287Z,48.88
2023-03-06T11:25:31.894Z,49.00
2023-03-06T11:29:34.298Z,49.16
2023-03-06T11:33:31.796Z,49.24
2023-03-06T11:37:31.804Z,49.40
2023-03-06T11:41:31.738Z,48.88
2023-03-06T11:45:31.789Z,47.99
2023-03-06T11:49:31.681Z,47.33
2023-03-06T11:53:31.611Z,46.37
2023-03-06T11:57:31.575Z,44.94
2023-03-06T12:01:31.538Z,44.20
2023-03-06T12:05:31.561Z,43.72
2023-03-06T12:09:31.487Z,42.92
2023-03-06T12:13:31.477Z,41.81
2023-03-06T12:17:31.802Z,40.63
2023-03-06T12:21:31.362Z,40.26
2023-03-06T12:25:31.333Z,40.32
2023-03-06T12:29:31.368Z,39.65
2023-03-06T12:33:31.232Z,39.59
2023-03-06T12:37:31.338Z,38.19
2023-03-06T12:41:31.193Z,36.73
2023-03-06T12:45:31.300Z,37.26
2023-03-06T12:49:32.995Z,38.23
2023-03-06T12:53:31.309Z,38.25
2023-03-06T12:57:31.129Z,37.50
2023-03-06T13:01:31.179Z,38.75
2023-03-06T13:05:31.311Z,38.40
2023-03-06T13:09:31.315Z,38.39
2023-03-06T13:13:31.272Z,38.64
2023-03-06T13:17:31.216Z,39.12
2023-03-06T13:21:31.350Z,37.87
2023-03-06T13:25:31.304Z,34.53
2023-03-06T13:29:31.122Z,33.95
2023-03-06T13:33:31.088Z,34.28
2023-03-06T13:37:31.062Z,33.49
2023-03-06T13:41:31.099Z,32.60
2023-03-06T13:45:30.988Z,31.98
2023-03-06T13:49:30.948Z,32.49
2023-03-06T13:53:30.941Z,32.54
2023-03-06T13:57:30.890Z,32.82
2023-03-06T14:01:30.903Z,32.99
2023-03-06T14:05:30.782Z,31.72
2023-03-06T14:09:30.754Z,31.90
2023-03-06T14:13:38.411Z,32.21
2023-03-06T14:17:31.708Z,32.23
2023-03-06T14:21:30.665Z,31.70
2023-03-06T14:25:30.722Z,31.60
2023-03-06T14:29:30.697Z,31.48
2023-03-06T14:33:30.633Z,31.66
2023-03-06T14:37:30.642Z,31.40
2023-03-06T14:41:30.587Z,31.02
2023-03-06T14:45:30.559Z,30.52
2023-03-06T14:49:30.513Z,31.09
2023-03-06T14:53:30.476Z,31.64
2023-03-06T14:57:30.428Z,31.76
2023-03-06T15:01:30.485Z,31.39
2023-03-06T15:05:30.350Z,31.12
2023-03-06T15:09:30.359Z,31.06
2023-03-06T15:13:30.400Z,30.24
2023-03-06T15:17:30.245Z,31.19
2023-03-06T15:21:30.202Z,31.49
2023-03-06T15:25:30.207Z,31.89
2023-03-06T15:29:30.142Z,32.01
2023-03-06T15:33:30.113Z,31.96
2023-03-06T15:37:30.077Z,31.86
2023-03-06T15:41:30.026Z,30.29
2023-03-06T15:45:30.064Z,30.94
2023-03-06T15:49:29.992Z,31.52
2023-03-06T15:53:29.946Z,31.46
2023-03-06T15:57:29.924Z,30.87
2023-03-06T16:01:29.981Z,30.26
2023-03-06T16:05:29.877Z,29.82
2023-03-06T16:09:29.992Z,29.75
2023-03-06T16:13:30.070Z,29.76
2023-03-06T16:17:30.105Z,29.41
2023-03-06T16:21:30.214Z,29.72
2023-03-06T16:25:30.316Z,30.42
2023-03-06T16:29:30.452Z,29.87
2023-03-06T16:33:30.612Z,29.70
2023-03-06T16:37:30.791Z,29.97
2023-03-06T16:41:31.000Z,29.97
2023-03-06T16:45:31.139Z,29.73
2023-03-06T16:49:31.321Z,28.93
2023-03-06T16:53:31.468Z,28.67
2023-03-06T16:57:32.391Z,28.40
2023-03-06T17:01:32.005Z,28.80
2023-03-06T17:05:31.990Z,28.69
2023-03-06T17:09:32.182Z,28.47
2023-03-06T17:13:32.355Z,28.55
2023-03-06T17:17:32.597Z,28.88
2023-03-06T17:21:32.537Z,28.41
2023-03-06T17:25:32.529Z,28.25
2023-03-06T17:29:32.502Z,28.20
2023-03-06T17:33:32.469Z,27.95
2023-03-06T17:37:32.405Z,27.50
2023-03-06T17:41:32.412Z,27.23
2023-03-06T17:45:32.350Z,27.10
2023-03-06T17:49:32.307Z,26.91
2023-03-06T17:53:32.283Z,26.85
2023-03-06T17:57:32.305Z,26.61
2023-03-06T18:01:32.193Z,26.35
2023-03-06T18:05:32.192Z,25.79
2023-03-06T18:09:32.280Z,25.35
2023-03-06T18:13:32.404Z,24.79
2023-03-06T18:17:32.549Z,24.25
2023-03-06T18:21:32.714Z,23.88
2023-03-06T18:25:32.899Z,23.77
2023-03-06T18:29:32.852Z,23.34
2023-03-06T18:33:32.861Z,23.24
2023-03-06T18:37:32.835Z,23.00
2023-03-06T18:41:32.778Z,22.97
2023-03-06T18:45:32.772Z,22.84
2023-03-06T18:49:32.732Z,22.79
2023-03-06T18:53:32.658Z,22.76
2023-03-06T18:57:32.649Z,22.68
2023-03-06T19:01:32.632Z,22.62
2023-03-06T19:05:32.567Z,22.56
2023-03-06T19:09:32.519Z,22.48
2023-03-06T19:13:32.514Z,22.44
2023-03-06T19:17:32.443Z,22.39
2023-03-06T19:21:32.437Z,22.29
2023-03-06T19:25:32.383Z,22.25
2023-03-06T19:29:32.349Z,22.36
2023-03-06T19:33:32.362Z,22.23
2023-03-06T19:37:32.268Z,22.30
2023-03-06T19:41:32.209Z,22.24
2023-03-06T19:45:32.279Z,22.14
2023-03-06T19:49:32.136Z,22.18
2023-03-06T19:53:32.275Z,22.11
2023-03-06T19:57:32.425Z,22.09
2023-03-06T20:01:32.644Z,22.09
2023-03-06T20:05:32.702Z,22.08
2023-03-06T20:09:32.838Z,22.04
2023-03-06T20:13:32.972Z,22.04
2023-03-06T20:17:33.087Z,22.02
2023-03-06T20:21:33.232Z,21.98
2023-03-06T20:25:33.363Z,21.95
2023-03-06T20:29:33.530Z,21.96
2023-03-06T20:33:33.715Z,21.93
2023-03-06T20:37:33.920Z,21.90
2023-03-06T20:41:34.151Z,21.92
2023-03-06T20:45:34.372Z,21.93
2023-03-06T20:49:34.579Z,21.95
2023-03-06T20:53:34.790Z,21.96
2023-03-06T20:57:34.976Z,21.90
2023-03-06T21:01:34.992Z,21.95
2023-03-06T21:05:34.980Z,21.97
2023-03-06T21:09:34.870Z,21.95
2023-03-06T21:13:34.858Z,22.01
2023-03-06T21:17:34.794Z,21.98
2023-03-06T21:21:34.793Z,21.97
2023-03-06T21:25:34.749Z,21.96
2023-03-06T21:29:34.699Z,21.97
2023-03-06T21:33:34.672Z,21.91
2023-03-06T21:37:34.661Z,21.91
2023-03-06T21:41:34.771Z,21.91
2023-03-06T21:45:34.934Z,21.97
2023-03-06T21:49:34.907Z,22.09
2023-03-06T21:53:34.813Z,22.18
2023-03-06T21:57:34.782Z,22.20
2023-03-06T22:01:34.729Z,22.23
2023-03-06T22:05:34.715Z,22.28
2023-03-06T22:09:34.672Z,22.37
2023-03-06T22:13:34.670Z,22.45
2023-03-06T22:17:34.631Z,22.48
2023-03-06T22:21:34.601Z,22.48
2023-03-06T22:25:34.510Z,22.51
2023-03-06T22:29:34.500Z,22.53
2023-03-06T22:33:34.445Z,22.59
2023-03-06T22:37:34.456Z,22.66
2023-03-06T22:41:34.394Z,22.67
2023-03-06T22:45:34.746Z,22.74
2023-03-06T22:49:34.310Z,22.76
2023-03-06T22:53:34.290Z,22.85
2023-03-06T22:57:34.266Z,22.98
2023-03-06T23:01:34.290Z,23.09
2023-03-06T23:05:34.412Z,23.18
2023-03-06T23:09:34.653Z,23.09
2023-03-06T23:13:34.612Z,23.08
2023-03-06T23:17:34.529Z,23.12
2023-03-06T23:21:34.529Z,23.18
2023-03-06T23:25:34.488Z,23.16
2023-03-06T23:29:34.448Z,23.16
2023-03-06T23:33:34.436Z,23.26
2023-03-06T23:37:34.397Z,23.28
2023-03-06T23:41:34.349Z,23.26
2023-03-06T23:45:34.327Z,23.31
2023-03-06T23:49:34.281Z,23.32
2023-03-06T23:53:34.235Z,23.38
2023-03-06T23:57:34.183Z,23.43
